INDIA METEOROLOGICAL DEPARTMENT, R.M.C. NEW DELHI
Dated:26 - 2 - 2017
METARS


Ahmedabad  
VAAH 261830Z 00000KT 4000 FU NSC 23/11 Q1012 NOSIG=
Amritsar   
VIAR 261900Z 00000KT 4000 BR NSC 14/10 Q1013 NOSIG=
Aurangabad 
VAAU 261800Z 00000KT 6000 NSC 20/11 Q1015 NOSIG=
Bangalore  
VOBL 261830Z 11004KT 6000 NSC 20/19 Q1017 NOSIG=
Bhopal     
VABP 261800Z 05003KT 6000 NSC 19/07 Q1015 NOSIG=
Bhubaneswar
VEBS 261837Z 00000KT 3000 HZ NSC 24/21 Q1012 NOSIG=
Chennai    
VOMM 261900Z 00000KT 5000 BR FEW020 SCT100 24/22 Q1012 NOSIG=
Coimbatore 
VOCB 261830Z 09009KT 6000 NSC 27/17 Q1014 NOSIG=
Colombo    
VCBI 261840Z 03006KT 9999 FEW040 26/22 Q1011 NOSIG=
Delhi      
VIDP 261830Z 27003KT 3000 HZ NSC 16/08 Q1013 NOSIG=
Gauhati    
VEGT 261830Z NIL=
Gaya       
VEGY 261830Z NIL=
Goa        
VOGO 261900Z VRB02KT 6000 SCT020 FEW090 26/20 Q1010 NOSIG=
Hyderabad  
VOHS 261900Z 16004KT 6000 FEW020 23/03 Q1016 N0SIG=
Indore     
VAID 261800Z 05004KT 6000 NSC 23/08 Q1015 NOSIG=
Jaipur     
VIJP 261830Z 00000KT 4000 HZ NSC 18/01 Q1015 NOSIG=
Kochi      
VOCI 261900Z 00000KT 3500 HZ FEW015 SCT090 27/23 Q1010 NOSIG=
Kolkata    
VECC 261900Z 00000KT 2600 HZ NSC 21/13 Q1012 NOSIG=
Kozhikode  
VOCL 261900Z 16003KT 6000 SCT015 SCT090 28/25 Q1010 NOSIG=
Lucknow    
VILK 261830Z VRB02KT 2000 HZ NSC 16/07 Q1011=
Madurai    
VOMD 261800Z 08003KT 6000 FEW020 SCT100 25/20 Q1013 NOSIG=
Mumbai     
VABB 261900Z 00000KT 3000 FU NSC 28/17 Q1010 NOSIG=
Nagpur     
VANP 261830Z 00000KT 4000 NSC 22/06 Q1014 NOSIG=
Patna      
VEPT 261830Z NIL=
Trichy     
VOTR 261830Z 07003KT 4000 BR FEW018 SCT080 25/21 Q1012 NOSIG=
Trivandrum 
VOTV 261900Z 16003KT 4000 HZ SCT015 BKN090 28/23 Q1010 NOSIG=
Varanasi   
VEBN 261830Z 26003KT 3000 HZ NSC 18/11 Q1012=
Vizag      
VOVZ 261700Z VRB02KT 4000 HZ BR NSC 27/23 Q1012 NOSIG =
Male       
VRMM 261800Z 05008KT 9999 FEW018 BKN270 28/23 Q1011 NOSIG=
Gan        
VRMG 261800Z 01003KT 8000 FEW018TCU BKN260 28/24 Q1011=
Kathmandu  
VNKT 261850Z VRB02KT 6000 FEW020 11/08 Q1017 NOSIG=
Dhaka      
VGHS 261830Z 00000KT 4000 HZ NSC 22/14 Q1011 NOSIG=
Colombo    
VCBI 261840Z 03006KT 9999 FEW040 26/22 Q1011 NOSIG=
Karachi    
OPKC 261925Z 18007KT 5000 HZ NSC 31/13 Q1011 NOSIG=
Lahore     
OPLA 261825Z 00000KT 4000 FU NSC 18/08 Q1014/A29.92=
Jodhpur    
VIJO 261830Z VRB02KT 6000 SKC 20/03 Q1013 NOSIG=
Bhuj-Rudra 
VABJ 261830Z VRB01KT 6000 SKC 23/08 Q1013 NOSIG=
Agra       
VIAG 261830Z VRB01KT 6000 SKC 12/09 Q1013 NOSIG=
Gwalior    
VIGR 261800Z 00000KT 4000 HZ NSC 15/10 Q1014=
Pune       
VAPO 261830Z VRB02KT 6000 FEW250 21/03 Q1016 NOSIG=
Jamnagar   
VAJM 261830Z 23004KT 6000 SKC 21/16 Q 1011 NOSIG=